Accueil
METAR-TAF:

METAR-TAF

Aéroports :

Mont-De-Marsan, France

Base aérienne 118 Mont-de-Marsan

latitude: 43-55N, longitude: 000-30W, altitude: 62 m

Observation

Le bulletin a été fait il y a 18 minutes, à 10:00 UTC
Vent 3 kt de direction variable
Température 13°C
Humidité 41%
Pression 1021 hPa
Visibilité 10 km ou plus
pas de nuages en-dessous de 1500 mètres et pas de cumulonimbus.

METAR: LFBM 281000Z AUTO VRB03KT CAVOK 13/M00 Q1021

Heure: 12:18 (10:18 UTC)

Prévision

Le bulletin a été fait il y a 2 heures et 18 minutes, à 08:00 UTC
Prévision valable du 28 à 09 UTC au 29 à 09 UTC
Vent 5 kt de est/sud-est
Visibilité 10 km ou plus
pas de nuages en-dessous de 1500 mètres et pas de cumulonimbus.

TAF: LFBM 280800Z 2809/2909 11005KT CAVOK

Observations et prévisions météorologiques de plus de 4000 aéroports (messages METAR et TAF).

Les stations disponibles sont représentées par des disques jaunes et rouges sur la carte.

Passer la souris dessus pour voir le nom de la station.

Cliquer dessus pour voir les observations et prévisions météorologiques.

Pour changer de carte: cliquez sur les boutons verts avec une croix noire pour zoomer, sur le bouton vert avec un tiret pour effectuer un zoom arrière, ou sur les flèches vertes pour les cartes adjacentes.


METAR-TAF: